LOT221 EPWR-EPLB
Flight info
| Callsign | LOT221 |
|---|---|
| Flight time | 0h 47m |
| Altitude | 33000 |
| Route | LUNUK DCT OVBOR DCT VAGDU DCT LODBO M857 VENES |
| Aircraft | A20N/M-SDE2E3FGHIRWXY/LB1 |
Departure
| Time | 2026-04-26 13:50 |
|---|---|
| Airport | Copernicus Wrocław Airport (EPWR) |
Arrival
| Time | 2026-04-26 14:37 |
|---|---|
| Airport | Lublin Airport (EPLB) |
| Time | Latitude | Longitude | Altitude | Speed | Heading |
|---|---|---|---|---|---|
| 2026-04-26 13:34 | 51.10838 | 16.88097 | 403 ft | 0 kts | 26° |
| 2026-04-26 13:43 | 51.10836 | 16.88096 | 403 ft | 2 kts | 26° |
| 2026-04-26 13:43 | 51.10821 | 16.88084 | 403 ft | 2 kts | 25° |
| 2026-04-26 13:43 | 51.10806 | 16.88073 | 401 ft | 2 kts | 25° |
| 2026-04-26 13:43 | 51.10791 | 16.88062 | 399 ft | 2 kts | 37° |
| 2026-04-26 13:44 | 51.10781 | 16.88042 | 401 ft | 2 kts | 80° |
| 2026-04-26 13:44 | 51.10781 | 16.88020 | 401 ft | 1 kts | 110° |
| 2026-04-26 13:44 | 51.10782 | 16.88016 | 397 ft | 0 kts | 114° |
| 2026-04-26 13:46 | 51.10761 | 16.88087 | 403 ft | 18 kts | 115° |
| 2026-04-26 13:46 | 51.10687 | 16.88326 | 403 ft | 27 kts | 120° |
| 2026-04-26 13:46 | 51.10601 | 16.88605 | 401 ft | 29 kts | 116° |
| 2026-04-26 13:47 | 51.10511 | 16.88894 | 403 ft | 29 kts | 116° |
| 2026-04-26 13:47 | 51.10421 | 16.89189 | 403 ft | 30 kts | 116° |
| 2026-04-26 13:47 | 51.10329 | 16.89490 | 403 ft | 30 kts | 114° |
| 2026-04-26 13:47 | 51.10237 | 16.89793 | 403 ft | 31 kts | 116° |
| 2026-04-26 13:48 | 51.10115 | 16.89961 | 403 ft | 19 kts | 205° |
| 2026-04-26 13:48 | 51.10014 | 16.89872 | 403 ft | 17 kts | 206° |
| 2026-04-26 13:48 | 51.09916 | 16.89767 | 403 ft | 17 kts | 248° |
| 2026-04-26 13:48 | 51.09930 | 16.89676 | 403 ft | 0 kts | 295° |
| 2026-04-26 13:49 | 51.10006 | 16.89430 | 405 ft | 57 kts | 296° |
| 2026-04-26 13:49 | 51.10268 | 16.88580 | 401 ft | 113 kts | 296° |
| 2026-04-26 13:50 | 51.10679 | 16.87244 | 452 ft | 149 kts | 296° |
| 2026-04-26 13:50 | 51.11140 | 16.85737 | 815 ft | 156 kts | 295° |
| 2026-04-26 13:50 | 51.11634 | 16.84103 | 1196 ft | 173 kts | 295° |
| 2026-04-26 13:50 | 51.12189 | 16.82291 | 1617 ft | 192 kts | 296° |
| 2026-04-26 13:51 | 51.12807 | 16.80276 | 2116 ft | 212 kts | 296° |
| 2026-04-26 13:51 | 51.13485 | 16.78067 | 2637 ft | 233 kts | 296° |
| 2026-04-26 13:51 | 51.13961 | 16.76510 | 3172 ft | 238 kts | 296° |
| 2026-04-26 13:51 | 51.14928 | 16.73342 | 4364 ft | 241 kts | 296° |
| 2026-04-26 13:52 | 51.15662 | 16.70918 | 5222 ft | 245 kts | 295° |
| 2026-04-26 13:52 | 51.16405 | 16.68464 | 6053 ft | 248 kts | 295° |
| 2026-04-26 13:52 | 51.17163 | 16.65970 | 6806 ft | 256 kts | 295° |
| 2026-04-26 13:52 | 51.17710 | 16.64170 | 6876 ft | 280 kts | 296° |
| 2026-04-26 13:53 | 51.18893 | 16.61562 | 7227 ft | 304 kts | 317° |
| 2026-04-26 13:53 | 51.20741 | 16.59718 | 7598 ft | 326 kts | 340° |
| 2026-04-26 13:53 | 51.23012 | 16.59172 | 8250 ft | 336 kts | 4° |
| 2026-04-26 13:53 | 51.25281 | 16.60089 | 9103 ft | 341 kts | 25° |
| 2026-04-26 13:54 | 51.27363 | 16.61850 | 9914 ft | 345 kts | 28° |
| 2026-04-26 13:54 | 51.29478 | 16.63743 | 10742 ft | 349 kts | 29° |
| 2026-04-26 13:54 | 51.31602 | 16.65673 | 11533 ft | 353 kts | 32° |
| 2026-04-26 13:55 | 51.34639 | 16.71771 | 13010 ft | 362 kts | 72° |
| 2026-04-26 13:55 | 51.34981 | 16.74389 | 13488 ft | 365 kts | 85° |
| 2026-04-26 13:55 | 51.33427 | 16.83532 | 15095 ft | 374 kts | 117° |
| 2026-04-26 13:56 | 51.32233 | 16.87249 | 15777 ft | 378 kts | 117° |
| 2026-04-26 13:56 | 51.31020 | 16.91003 | 16433 ft | 381 kts | 117° |
| 2026-04-26 13:56 | 51.29816 | 16.94802 | 17069 ft | 385 kts | 117° |
| 2026-04-26 13:56 | 51.28618 | 16.98650 | 17703 ft | 389 kts | 116° |
| 2026-04-26 13:57 | 51.27437 | 17.02494 | 18302 ft | 392 kts | 115° |
| 2026-04-26 13:57 | 51.26611 | 17.06657 | 18881 ft | 396 kts | 99° |
| 2026-04-26 13:57 | 51.26558 | 17.11057 | 19459 ft | 399 kts | 82° |
| 2026-04-26 13:57 | 51.27227 | 17.15378 | 20007 ft | 403 kts | 72° |
| 2026-04-26 13:58 | 51.28093 | 17.19651 | 20578 ft | 406 kts | 72° |
| 2026-04-26 13:58 | 51.28983 | 17.23970 | 21116 ft | 409 kts | 72° |
| 2026-04-26 13:58 | 51.29867 | 17.28309 | 21654 ft | 413 kts | 72° |
| 2026-04-26 13:58 | 51.30746 | 17.32690 | 22169 ft | 416 kts | 72° |
| 2026-04-26 13:59 | 51.31616 | 17.37079 | 22690 ft | 419 kts | 72° |
| 2026-04-26 13:59 | 51.32495 | 17.41543 | 23164 ft | 422 kts | 72° |
| 2026-04-26 13:59 | 51.33377 | 17.46038 | 23649 ft | 426 kts | 72° |
| 2026-04-26 14:00 | 51.36057 | 17.59770 | 25029 ft | 435 kts | 72° |
| 2026-04-26 14:00 | 51.36959 | 17.64414 | 25454 ft | 438 kts | 72° |
| 2026-04-26 14:00 | 51.37557 | 17.67496 | 25729 ft | 439 kts | 72° |
| 2026-04-26 14:01 | 51.38772 | 17.73780 | 26285 ft | 443 kts | 73° |
| 2026-04-26 14:01 | 51.39683 | 17.78505 | 26663 ft | 446 kts | 73° |
| 2026-04-26 14:01 | 51.40599 | 17.83264 | 27040 ft | 448 kts | 73° |
| 2026-04-26 14:01 | 51.41516 | 17.88044 | 27400 ft | 451 kts | 73° |
| 2026-04-26 14:02 | 51.42439 | 17.92862 | 27748 ft | 453 kts | 73° |
| 2026-04-26 14:02 | 51.43362 | 17.97701 | 28081 ft | 456 kts | 73° |
| 2026-04-26 14:02 | 51.44047 | 18.02610 | 28398 ft | 458 kts | 83° |
| 2026-04-26 14:02 | 51.44173 | 18.07715 | 28707 ft | 460 kts | 93° |
| 2026-04-26 14:03 | 51.43719 | 18.12794 | 28989 ft | 462 kts | 104° |
| 2026-04-26 14:03 | 51.42882 | 18.17778 | 29272 ft | 464 kts | 105° |
| 2026-04-26 14:03 | 51.42039 | 18.22787 | 29552 ft | 466 kts | 105° |
| 2026-04-26 14:03 | 51.41195 | 18.27815 | 29823 ft | 468 kts | 105° |
| 2026-04-26 14:04 | 51.40348 | 18.32855 | 30096 ft | 470 kts | 105° |
| 2026-04-26 14:04 | 51.39494 | 18.37915 | 30380 ft | 472 kts | 105° |
| 2026-04-26 14:04 | 51.38632 | 18.43005 | 30641 ft | 474 kts | 105° |
| 2026-04-26 14:04 | 51.37766 | 18.48100 | 30903 ft | 476 kts | 105° |
| 2026-04-26 14:05 | 51.36893 | 18.53226 | 31132 ft | 478 kts | 105° |
| 2026-04-26 14:05 | 51.36014 | 18.58366 | 31343 ft | 479 kts | 105° |
| 2026-04-26 14:05 | 51.35143 | 18.63445 | 31613 ft | 479 kts | 105° |
| 2026-04-26 14:05 | 51.34260 | 18.68576 | 31891 ft | 478 kts | 105° |
| 2026-04-26 14:06 | 51.33365 | 18.73765 | 32164 ft | 478 kts | 105° |
| 2026-04-26 14:06 | 51.32492 | 18.78812 | 32427 ft | 477 kts | 105° |
| 2026-04-26 14:06 | 51.31605 | 18.83924 | 32690 ft | 477 kts | 105° |
| 2026-04-26 14:06 | 51.30717 | 18.89030 | 32923 ft | 476 kts | 105° |
| 2026-04-26 14:07 | 51.29828 | 18.94120 | 33001 ft | 475 kts | 105° |
| 2026-04-26 14:07 | 51.28049 | 19.04273 | 33000 ft | 474 kts | 105° |
| 2026-04-26 14:08 | 51.26257 | 19.14443 | 33000 ft | 475 kts | 106° |
| 2026-04-26 14:08 | 51.24456 | 19.24602 | 33001 ft | 474 kts | 106° |
| 2026-04-26 14:09 | 51.22651 | 19.34726 | 32999 ft | 475 kts | 106° |
| 2026-04-26 14:09 | 51.20845 | 19.44805 | 33001 ft | 476 kts | 106° |
| 2026-04-26 14:10 | 51.19020 | 19.54928 | 32999 ft | 475 kts | 106° |
| 2026-04-26 14:10 | 51.17185 | 19.65050 | 33000 ft | 475 kts | 106° |
| 2026-04-26 14:11 | 51.14416 | 19.80218 | 32999 ft | 475 kts | 106° |
| 2026-04-26 14:11 | 51.12571 | 19.90260 | 32999 ft | 475 kts | 106° |
| 2026-04-26 14:12 | 51.10708 | 20.00347 | 33002 ft | 475 kts | 106° |
| 2026-04-26 14:12 | 51.08938 | 20.10482 | 33001 ft | 475 kts | 104° |
| 2026-04-26 14:13 | 51.06432 | 20.25742 | 33001 ft | 475 kts | 105° |
| 2026-04-26 14:14 | 51.04728 | 20.35888 | 33001 ft | 475 kts | 105° |
| 2026-04-26 14:14 | 51.03006 | 20.46037 | 33001 ft | 475 kts | 105° |
| 2026-04-26 14:15 | 51.01276 | 20.56175 | 33000 ft | 476 kts | 105° |
| 2026-04-26 14:15 | 50.99552 | 20.66218 | 33000 ft | 476 kts | 105° |
| 2026-04-26 14:16 | 50.97816 | 20.76277 | 33000 ft | 476 kts | 105° |
| 2026-04-26 14:16 | 50.96940 | 20.81331 | 32869 ft | 473 kts | 105° |
| 2026-04-26 14:16 | 50.96067 | 20.86352 | 32353 ft | 471 kts | 105° |
| 2026-04-26 14:16 | 50.95194 | 20.91359 | 31612 ft | 472 kts | 105° |
| 2026-04-26 14:17 | 50.94315 | 20.96389 | 30812 ft | 474 kts | 105° |
| 2026-04-26 14:17 | 50.93431 | 21.01432 | 30022 ft | 474 kts | 105° |
| 2026-04-26 14:17 | 50.92547 | 21.06459 | 29205 ft | 473 kts | 105° |
| 2026-04-26 14:17 | 50.91662 | 21.11474 | 28414 ft | 472 kts | 105° |
| 2026-04-26 14:18 | 50.90780 | 21.16464 | 27621 ft | 470 kts | 105° |
| 2026-04-26 14:18 | 50.89898 | 21.21438 | 26905 ft | 466 kts | 105° |
| 2026-04-26 14:18 | 50.89023 | 21.26361 | 26229 ft | 462 kts | 105° |
| 2026-04-26 14:18 | 50.88244 | 21.31269 | 25551 ft | 457 kts | 99° |
| 2026-04-26 14:19 | 50.88054 | 21.36263 | 24880 ft | 453 kts | 86° |
| 2026-04-26 14:19 | 50.88524 | 21.41099 | 24209 ft | 448 kts | 74° |
| 2026-04-26 14:19 | 50.89643 | 21.45671 | 23531 ft | 444 kts | 62° |
| 2026-04-26 14:19 | 50.91182 | 21.49891 | 22863 ft | 440 kts | 58° |
| 2026-04-26 14:20 | 50.92782 | 21.54012 | 22160 ft | 437 kts | 58° |
| 2026-04-26 14:20 | 50.94318 | 21.58145 | 21463 ft | 433 kts | 60° |
| 2026-04-26 14:20 | 50.95783 | 21.62308 | 20764 ft | 430 kts | 61° |
| 2026-04-26 14:20 | 50.97193 | 21.66469 | 20064 ft | 427 kts | 62° |
| 2026-04-26 14:21 | 50.98574 | 21.70632 | 19363 ft | 424 kts | 62° |
| 2026-04-26 14:21 | 50.99935 | 21.74773 | 18666 ft | 421 kts | 62° |
| 2026-04-26 14:21 | 51.01280 | 21.78880 | 17966 ft | 418 kts | 62° |
| 2026-04-26 14:21 | 51.02669 | 21.82847 | 17272 ft | 415 kts | 55° |
| 2026-04-26 14:22 | 51.04579 | 21.86243 | 16574 ft | 411 kts | 40° |
| 2026-04-26 14:22 | 51.06961 | 21.88689 | 15873 ft | 407 kts | 24° |
| 2026-04-26 14:22 | 51.09644 | 21.90025 | 15174 ft | 402 kts | 11° |
| 2026-04-26 14:22 | 51.12315 | 21.91233 | 14476 ft | 399 kts | 23° |
| 2026-04-26 14:23 | 51.14669 | 21.93531 | 13776 ft | 396 kts | 40° |
| 2026-04-26 14:23 | 51.16501 | 21.96762 | 13083 ft | 393 kts | 56° |
| 2026-04-26 14:23 | 51.17663 | 22.00673 | 12384 ft | 390 kts | 73° |
| 2026-04-26 14:23 | 51.18063 | 22.04927 | 11689 ft | 387 kts | 88° |
| 2026-04-26 14:24 | 51.18054 | 22.09207 | 10985 ft | 385 kts | 91° |
| 2026-04-26 14:24 | 51.18113 | 22.13472 | 10287 ft | 383 kts | 86° |
| 2026-04-26 14:24 | 51.18390 | 22.17656 | 9877 ft | 374 kts | 82° |
| 2026-04-26 14:24 | 51.18788 | 22.21610 | 9754 ft | 357 kts | 80° |
| 2026-04-26 14:25 | 51.19239 | 22.25445 | 9730 ft | 338 kts | 79° |
| 2026-04-26 14:25 | 51.19678 | 22.28974 | 9729 ft | 320 kts | 78° |
| 2026-04-26 14:25 | 51.20104 | 22.32356 | 9731 ft | 303 kts | 78° |
| 2026-04-26 14:25 | 51.20508 | 22.35563 | 9731 ft | 287 kts | 78° |
| 2026-04-26 14:26 | 51.20899 | 22.38688 | 9539 ft | 287 kts | 78° |
| 2026-04-26 14:26 | 51.21562 | 22.41684 | 9188 ft | 287 kts | 60° |
| 2026-04-26 14:26 | 51.22783 | 22.44162 | 9039 ft | 286 kts | 43° |
| 2026-04-26 14:26 | 51.24227 | 22.46359 | 8999 ft | 287 kts | 44° |
| 2026-04-26 14:27 | 51.25663 | 22.48577 | 9000 ft | 287 kts | 44° |
| 2026-04-26 14:27 | 51.27058 | 22.50857 | 8972 ft | 286 kts | 45° |
| 2026-04-26 14:27 | 51.28476 | 22.53071 | 8718 ft | 284 kts | 43° |
| 2026-04-26 14:27 | 51.29850 | 22.55338 | 8353 ft | 284 kts | 53° |
| 2026-04-26 14:28 | 51.30746 | 22.58143 | 7929 ft | 285 kts | 74° |
| 2026-04-26 14:28 | 51.31098 | 22.61264 | 7503 ft | 285 kts | 82° |
| 2026-04-26 14:28 | 51.31385 | 22.64402 | 7112 ft | 285 kts | 81° |
| 2026-04-26 14:28 | 51.31675 | 22.67528 | 6728 ft | 284 kts | 81° |
| 2026-04-26 14:29 | 51.31965 | 22.70637 | 6362 ft | 282 kts | 81° |
| 2026-04-26 14:29 | 51.32254 | 22.73740 | 6000 ft | 281 kts | 81° |
| 2026-04-26 14:29 | 51.32533 | 22.76800 | 5601 ft | 281 kts | 82° |
| 2026-04-26 14:29 | 51.32805 | 22.79919 | 5120 ft | 284 kts | 82° |
| 2026-04-26 14:30 | 51.33078 | 22.83064 | 4632 ft | 287 kts | 82° |
| 2026-04-26 14:30 | 51.33350 | 22.86191 | 4177 ft | 289 kts | 82° |
| 2026-04-26 14:30 | 51.33631 | 22.89422 | 3699 ft | 290 kts | 82° |
| 2026-04-26 14:30 | 51.33904 | 22.92590 | 3220 ft | 292 kts | 82° |
| 2026-04-26 14:31 | 51.34182 | 22.95825 | 2970 ft | 285 kts | 82° |
| 2026-04-26 14:31 | 51.34445 | 22.98861 | 2898 ft | 273 kts | 82° |
| 2026-04-26 14:31 | 51.34463 | 23.01823 | 2892 ft | 257 kts | 104° |
| 2026-04-26 14:31 | 51.33683 | 23.04252 | 2892 ft | 240 kts | 134° |
| 2026-04-26 14:32 | 51.32333 | 23.05598 | 2897 ft | 223 kts | 163° |
| 2026-04-26 14:32 | 51.30909 | 23.06241 | 2895 ft | 208 kts | 169° |
| 2026-04-26 14:32 | 51.29545 | 23.06045 | 2892 ft | 190 kts | 207° |
| 2026-04-26 14:32 | 51.28487 | 23.04753 | 2890 ft | 196 kts | 235° |
| 2026-04-26 14:33 | 51.27945 | 23.02803 | 2898 ft | 192 kts | 260° |
| 2026-04-26 14:33 | 51.27759 | 23.00686 | 2896 ft | 192 kts | 268° |
| 2026-04-26 14:33 | 51.27734 | 22.98551 | 2900 ft | 193 kts | 267° |
| 2026-04-26 14:33 | 51.27588 | 22.96427 | 2897 ft | 191 kts | 261° |
| 2026-04-26 14:34 | 51.27329 | 22.94341 | 2903 ft | 193 kts | 257° |
| 2026-04-26 14:34 | 51.27024 | 22.92307 | 2889 ft | 180 kts | 258° |
| 2026-04-26 14:34 | 51.26756 | 22.90421 | 2868 ft | 173 kts | 257° |
| 2026-04-26 14:34 | 51.26484 | 22.88523 | 2587 ft | 178 kts | 257° |
| 2026-04-26 14:35 | 51.26209 | 22.86632 | 2341 ft | 171 kts | 257° |
| 2026-04-26 14:35 | 51.25951 | 22.84817 | 2126 ft | 169 kts | 257° |
| 2026-04-26 14:35 | 51.25685 | 22.82975 | 1892 ft | 166 kts | 257° |
| 2026-04-26 14:35 | 51.25437 | 22.81239 | 1691 ft | 156 kts | 257° |
| 2026-04-26 14:36 | 51.25199 | 22.79585 | 1475 ft | 149 kts | 257° |
| 2026-04-26 14:36 | 51.24977 | 22.78040 | 1294 ft | 137 kts | 257° |
| 2026-04-26 14:36 | 51.24762 | 22.76539 | 1106 ft | 139 kts | 257° |
| 2026-04-26 14:36 | 51.24551 | 22.75067 | 925 ft | 135 kts | 257° |
| 2026-04-26 14:37 | 51.24340 | 22.73602 | 728 ft | 135 kts | 257° |
| 2026-04-26 14:37 | 51.24132 | 22.72175 | 639 ft | 116 kts | 257° |
| 2026-04-26 14:37 | 51.24055 | 22.71634 | 644 ft | 39 kts | 257° |
| 2026-04-26 14:37 | 51.24019 | 22.71407 | 646 ft | 18 kts | 235° |
| 2026-04-26 14:38 | 51.23920 | 22.71386 | 650 ft | 14 kts | 168° |
| 2026-04-26 14:38 | 51.23825 | 22.71421 | 654 ft | 14 kts | 166° |
| 2026-04-26 14:38 | 51.23720 | 22.71460 | 654 ft | 17 kts | 168° |
| 2026-04-26 14:38 | 51.23640 | 22.71488 | 654 ft | 0 kts | 167° |
| 2026-04-26 14:39 | 51.23642 | 22.71487 | 654 ft | 0 kts | 167° |
| 2026-04-26 14:39 | 51.23643 | 22.71487 | 654 ft | 0 kts | 167° |